Time;durP1;ratioP1;P1;durP2;ratioP2;P2;SDS_P1;SDS_P2;PMS_P1;PMS_P2;Temp;Humidity;BMP_temperature;BMP_pressure;BME280_temperature;BME280_humidity;BME280_pressure;Samples;Min_cycle;Max_cycle;Signal;HPM_P1;HPM_P2
2024/01/18 00:01:07;;;;;;;50.30;22.35;;;;;;;;;;5042925;28;20033;-91
2024/01/18 00:03:35;;;;;;;50.20;21.88;;;;;;;;;;5060739;28;20029;-90
2024/01/18 00:06:01;;;;;;;62.25;23.33;;;;;;;;;;5043181;28;20033;-91
2024/01/18 00:08:26;;;;;;;62.97;23.98;;;;;;;;;;5043304;28;20021;-91
2024/01/18 00:10:51;;;;;;;54.83;22.50;;;;;;;;;;5043188;28;20487;-91
2024/01/18 00:13:17;;;;;;;136.95;27.52;;;;;;;;;;5043460;28;20030;-90
2024/01/18 00:15:42;;;;;;;231.95;30.20;;;;;;;;;;5042744;28;20025;-91
2024/01/18 00:21:10;;;;;;;53.30;21.17;;;;;;;;;;5060494;28;20028;-91
2024/01/18 00:23:35;;;;;;;54.00;23.02;;;;;;;;;;5042863;28;20029;-91
2024/01/18 00:26:00;;;;;;;49.42;21.75;;;;;;;;;;5060433;28;20024;-91
2024/01/18 00:28:26;;;;;;;50.25;21.27;;;;;;;;;;5042957;28;20075;-91
2024/01/18 00:30:51;;;;;;;33.38;14.68;;;;;;;;;;5042777;28;20120;-91
2024/01/18 00:33:16;;;;;;;58.88;18.13;;;;;;;;;;5042712;28;20059;-91
2024/01/18 00:35:42;;;;;;;32.30;13.60;;;;;;;;;;5042967;28;20021;-91
2024/01/18 00:41:10;;;;;;;40.30;17.30;;;;;;;;;;5060080;28;20437;-91
2024/01/18 00:43:35;;;;;;;29.02;10.98;;;;;;;;;;5042490;28;20033;-91
2024/01/18 00:46:04;;;;;;;30.88;11.32;;;;;;;;;;5042459;28;20025;-90
2024/01/18 00:48:30;;;;;;;29.55;10.88;;;;;;;;;;5042558;28;20491;-91
2024/01/18 00:50:55;;;;;;;24.02;10.38;;;;;;;;;;5042336;28;20021;-91
2024/01/18 00:53:20;;;;;;;22.52;9.27;;;;;;;;;;5059741;28;20031;-91
2024/01/18 00:55:46;;;;;;;24.08;9.02;;;;;;;;;;5042395;28;20021;-91
2024/01/18 00:58:11;;;;;;;17.48;8.23;;;;;;;;;;5042404;28;20091;-91
2024/01/18 01:00:36;;;;;;;28.67;7.80;;;;;;;;;;5042091;28;20024;-91
2024/01/18 01:03:02;;;;;;;26.17;7.13;;;;;;;;;;5042251;28;20029;-91
2024/01/18 01:05:27;;;;;;;19.40;7.55;;;;;;;;;;5042052;28;20251;-91
2024/01/18 01:07:52;;;;;;;22.90;8.02;;;;;;;;;;5042573;28;20021;-91
2024/01/18 01:10:18;;;;;;;20.93;7.80;;;;;;;;;;5042227;28;20056;-91
2024/01/18 01:12:43;;;;;;;16.70;6.70;;;;;;;;;;5041979;28;20762;-92
2024/01/18 01:15:09;;;;;;;18.63;6.00;;;;;;;;;;5042233;28;20017;-91
2024/01/18 01:17:34;;;;;;;17.65;6.93;;;;;;;;;;5041934;28;20119;-92
2024/01/18 01:19:59;;;;;;;140.25;12.15;;;;;;;;;;5041986;28;20565;-91
2024/01/18 01:22:24;;;;;;;417.80;26.70;;;;;;;;;;5042024;28;20021;-91
2024/01/18 01:24:50;;;;;;;25.83;6.43;;;;;;;;;;5041847;28;20029;-91
2024/01/18 01:27:15;;;;;;;15.45;5.72;;;;;;;;;;5059345;28;20779;-91
2024/01/18 01:29:40;;;;;;;18.00;6.18;;;;;;;;;;5059506;28;20027;-91
2024/01/18 01:32:05;;;;;;;19.30;4.72;;;;;;;;;;5041731;28;20027;-91
2024/01/18 01:34:31;;;;;;;13.75;5.10;;;;;;;;;;5041568;28;20025;-91
2024/01/18 01:36:56;;;;;;;17.92;5.13;;;;;;;;;;5041469;28;20020;-91
2024/01/18 01:39:21;;;;;;;17.20;4.93;;;;;;;;;;5041565;28;20025;-91
2024/01/18 01:41:47;;;;;;;12.43;4.97;;;;;;;;;;5041678;28;20025;-91
2024/01/18 01:44:12;;;;;;;14.85;4.72;;;;;;;;;;5041255;28;20074;-91
2024/01/18 01:46:37;;;;;;;18.65;5.07;;;;;;;;;;5041458;28;20021;-91
2024/01/18 01:49:04;;;;;;;19.15;4.15;;;;;;;;;;5041535;28;20028;-90
2024/01/18 01:51:34;;;;;;;1046.22;70.20;;;;;;;;;;5059033;28;20020;-91
2024/01/18 01:54:01;;;;;;;684.47;52.15;;;;;;;;;;5043874;28;20021;-91
2024/01/18 01:56:27;;;;;;;844.78;51.60;;;;;;;;;;5060735;28;20028;-92
2024/01/18 01:58:52;;;;;;;944.92;63.75;;;;;;;;;;5060757;28;20039;-91
2024/01/18 02:01:18;;;;;;;80.10;20.27;;;;;;;;;;5050485;28;20434;-90
2024/01/18 02:03:43;;;;;;;74.32;22.52;;;;;;;;;;5042808;28;20040;-91
2024/01/18 02:06:09;;;;;;;237.30;30.88;;;;;;;;;;5058958;28;20063;-91
2024/01/18 02:08:35;;;;;;;87.68;25.67;;;;;;;;;;5075313;28;20030;-91
2024/01/18 02:11:00;;;;;;;48.17;22.20;;;;;;;;;;5049781;28;20061;-91
2024/01/18 02:13:26;;;;;;;192.02;26.42;;;;;;;;;;5040694;28;20071;-91
2024/01/18 02:15:51;;;;;;;326.13;35.22;;;;;;;;;;5040755;28;20075;-91
2024/01/18 02:18:17;;;;;;;1190.38;86.47;;;;;;;;;;5041068;28;20027;-91
2024/01/18 02:20:42;;;;;;;945.53;76.43;;;;;;;;;;5040965;28;20025;-91
2024/01/18 02:23:08;;;;;;;1163.80;84.85;;;;;;;;;;5040853;28;20055;-91
2024/01/18 02:25:33;;;;;;;1161.88;87.57;;;;;;;;;;5045589;28;20030;-91
2024/01/18 02:28:06;;;;;;;326.45;32.08;;;;;;;;;;5060603;28;20051;-91
2024/01/18 02:30:31;;;;;;;526.92;46.60;;;;;;;;;;5060423;28;20020;-91
2024/01/18 02:32:57;;;;;;;515.72;39.60;;;;;;;;;;5084438;28;20031;-90
2024/01/18 02:35:22;;;;;;;708.45;50.85;;;;;;;;;;5080427;28;20417;-91
2024/01/18 02:37:48;;;;;;;378.38;38.13;;;;;;;;;;5080359;28;20072;-91
2024/01/18 02:40:13;;;;;;;359.65;37.85;;;;;;;;;;5080409;28;20020;-91
2024/01/18 02:42:38;;;;;;;589.58;50.72;;;;;;;;;;5091641;28;20027;-90
2024/01/18 02:45:04;;;;;;;165.35;25.50;;;;;;;;;;5060170;28;20039;-91
2024/01/18 02:47:30;;;;;;;782.83;61.13;;;;;;;;;;5077740;28;20368;-90
2024/01/18 02:49:56;;;;;;;534.45;53.00;;;;;;;;;;5077687;28;20091;-91
2024/01/18 02:52:21;;;;;;;690.42;58.95;;;;;;;;;;5060063;28;20377;-91
2024/01/18 02:54:47;;;;;;;150.32;21.73;;;;;;;;;;5077704;28;20051;-91
2024/01/18 02:57:12;;;;;;;748.72;52.78;;;;;;;;;;5077525;28;20391;-92
2024/01/18 02:59:37;;;;;;;465.85;43.17;;;;;;;;;;5077415;28;20025;-90
2024/01/18 03:02:03;;;;;;;689.72;53.35;;;;;;;;;;5077566;28;20032;-90
2024/01/18 03:04:28;;;;;;;345.95;35.25;;;;;;;;;;5077295;28;20020;-90
2024/01/18 03:06:53;;;;;;;104.95;24.92;;;;;;;;;;5077393;28;20048;-89
2024/01/18 03:09:18;;;;;;;455.87;44.73;;;;;;;;;;5077318;28;20016;-90
2024/01/18 03:11:47;;;;;;;130.00;27.88;;;;;;;;;;5059934;28;20270;-91
2024/01/18 03:14:12;;;;;;;510.90;41.75;;;;;;;;;;5077307;28;20032;-91
2024/01/18 03:16:42;;;;;;;72.25;25.02;;;;;;;;;;5071308;28;20029;-91
2024/01/18 03:19:08;;;;;;;1213.60;87.63;;;;;;;;;;5070391;28;20032;-91
2024/01/18 03:21:34;;;;;;;405.05;41.50;;;;;;;;;;5068360;28;20538;-91
2024/01/18 03:23:59;;;;;;;398.98;38.47;;;;;;;;;;5077117;28;20070;-91
2024/01/18 03:26:24;;;;;;;63.83;23.65;;;;;;;;;;5077273;28;20028;-91
2024/01/18 03:28:50;;;;;;;279.67;34.03;;;;;;;;;;5059714;28;20024;-91
2024/01/18 03:31:15;;;;;;;843.97;73.43;;;;;;;;;;5059744;28;20021;-91
2024/01/18 03:33:40;;;;;;;163.93;25.50;;;;;;;;;;5077226;28;20444;-91
2024/01/18 03:36:06;;;;;;;243.55;34.10;;;;;;;;;;5077095;28;20028;-90
2024/01/18 03:38:31;;;;;;;317.02;35.65;;;;;;;;;;5077218;28;20080;-91
2024/01/18 03:40:56;;;;;;;78.18;26.67;;;;;;;;;;5077067;28;20036;-90
2024/01/18 03:43:22;;;;;;;70.15;24.13;;;;;;;;;;5059726;28;20028;-91
2024/01/18 03:45:47;;;;;;;64.97;23.23;;;;;;;;;;5076978;28;20021;-90
2024/01/18 03:48:12;;;;;;;67.45;24.55;;;;;;;;;;5059311;28;20059;-90
2024/01/18 03:50:38;;;;;;;109.72;26.25;;;;;;;;;;5076853;28;20050;-90
2024/01/18 03:53:03;;;;;;;272.35;30.08;;;;;;;;;;5059429;28;20109;-90
2024/01/18 03:55:28;;;;;;;247.98;29.27;;;;;;;;;;5076900;28;20448;-91
2024/01/18 03:57:54;;;;;;;75.35;23.00;;;;;;;;;;5076858;28;20024;-91
2024/01/18 04:00:19;;;;;;;176.80;26.67;;;;;;;;;;5076908;28;20028;-90
2024/01/18 04:02:44;;;;;;;237.10;29.85;;;;;;;;;;5076828;28;20024;-90
2024/01/18 04:05:10;;;;;;;62.25;21.98;;;;;;;;;;5077066;28;20028;-90
2024/01/18 04:07:37;;;;;;;64.70;21.90;;;;;;;;;;5076824;28;20020;-90
2024/01/18 04:10:03;;;;;;;59.25;22.55;;;;;;;;;;5076728;28;20021;-91
2024/01/18 04:12:28;;;;;;;410.95;38.58;;;;;;;;;;5058996;28;20440;-91
2024/01/18 04:14:53;;;;;;;59.50;21.50;;;;;;;;;;5076653;28;20029;-90
2024/01/18 04:17:19;;;;;;;62.17;21.38;;;;;;;;;;5076964;28;20081;-91
2024/01/18 04:19:44;;;;;;;86.25;22.17;;;;;;;;;;5058997;28;20039;-91
2024/01/18 04:22:09;;;;;;;77.70;21.85;;;;;;;;;;5065558;28;20035;-91
2024/01/18 04:24:35;;;;;;;140.45;23.80;;;;;;;;;;5046920;28;20028;-91
2024/01/18 04:27:00;;;;;;;720.75;47.80;;;;;;;;;;5048743;28;20032;-91
2024/01/18 04:29:29;;;;;;;62.30;21.55;;;;;;;;;;5045917;28;20025;-90
2024/01/18 04:31:54;;;;;;;301.30;29.92;;;;;;;;;;5042488;28;20031;-90
2024/01/18 04:34:20;;;;;;;664.85;50.42;;;;;;;;;;5043123;28;20417;-91
2024/01/18 04:36:45;;;;;;;77.63;20.90;;;;;;;;;;5060222;28;20361;-91
2024/01/18 04:39:11;;;;;;;133.88;23.20;;;;;;;;;;5042881;28;20035;-90
2024/01/18 04:41:36;;;;;;;65.05;22.40;;;;;;;;;;5060080;28;20449;-91
2024/01/18 04:44:02;;;;;;;55.28;19.77;;;;;;;;;;5042502;28;20127;-91
2024/01/18 04:46:28;;;;;;;244.07;26.67;;;;;;;;;;5076212;28;20020;-91
2024/01/18 04:48:53;;;;;;;120.45;22.15;;;;;;;;;;5062520;28;20047;-91
2024/01/18 04:51:20;;;;;;;66.95;21.67;;;;;;;;;;5062548;28;20433;-91
2024/01/18 04:53:45;;;;;;;109.25;22.05;;;;;;;;;;5079918;28;20031;-90
2024/01/18 04:56:10;;;;;;;607.95;44.25;;;;;;;;;;5061549;28;20119;-93
2024/01/18 04:58:36;;;;;;;566.20;46.53;;;;;;;;;;5069343;28;20115;-91
2024/01/18 05:01:01;;;;;;;525.20;42.97;;;;;;;;;;5059136;28;20134;-90
2024/01/18 05:03:26;;;;;;;105.95;22.27;;;;;;;;;;5078680;28;20036;-84
2024/01/18 05:05:52;;;;;;;353.08;26.77;;;;;;;;;;5048843;28;20029;-84
2024/01/18 05:08:17;;;;;;;258.30;29.30;;;;;;;;;;5057449;28;20364;-84
2024/01/18 05:10:42;;;;;;;51.20;18.52;;;;;;;;;;5061298;28;20024;-85
2024/01/18 05:13:08;;;;;;;90.95;17.90;;;;;;;;;;5074213;28;20025;-84
2024/01/18 05:15:33;;;;;;;304.40;30.40;;;;;;;;;;5055604;28;20349;-85
2024/01/18 05:17:59;;;;;;;254.63;27.45;;;;;;;;;;5060458;28;20032;-86
2024/01/18 05:20:24;;;;;;;48.75;18.30;;;;;;;;;;5061148;28;20028;-86
2024/01/18 05:22:50;;;;;;;988.10;71.68;;;;;;;;;;5061298;28;20029;-86
2024/01/18 05:25:15;;;;;;;793.63;62.28;;;;;;;;;;5078681;28;20032;-86
2024/01/18 05:27:40;;;;;;;813.10;54.78;;;;;;;;;;5060804;28;20029;-86
2024/01/18 05:30:07;;;;;;;646.17;49.42;;;;;;;;;;5061065;28;20472;-85
2024/01/18 05:32:32;;;;;;;595.22;39.42;;;;;;;;;;5060848;28;20387;-85
2024/01/18 05:34:58;;;;;;;416.88;31.13;;;;;;;;;;5061179;28;20137;-85
2024/01/18 05:37:23;;;;;;;431.55;32.22;;;;;;;;;;5051026;28;20039;-85
2024/01/18 05:39:50;;;;;;;85.88;14.90;;;;;;;;;;5057992;28;20033;-85
2024/01/18 05:42:16;;;;;;;37.70;14.93;;;;;;;;;;5040153;28;20428;-85
2024/01/18 05:44:41;;;;;;;332.08;27.23;;;;;;;;;;5058266;28;20109;-85
2024/01/18 05:47:09;;;;;;;197.93;22.90;;;;;;;;;;5042435;28;20082;-84
2024/01/18 05:49:35;;;;;;;381.08;32.05;;;;;;;;;;5065389;28;20032;-85
2024/01/18 05:52:01;;;;;;;80.47;18.65;;;;;;;;;;5040523;28;20025;-85
2024/01/18 05:54:26;;;;;;;54.08;16.80;;;;;;;;;;5040738;28;20532;-85
2024/01/18 05:56:51;;;;;;;34.42;11.63;;;;;;;;;;5056375;28;20060;-87
2024/01/18 05:59:16;;;;;;;30.02;8.63;;;;;;;;;;5058398;28;20108;-84
2024/01/18 06:01:42;;;;;;;39.40;14.88;;;;;;;;;;5057810;28;20071;-85
2024/01/18 06:04:08;;;;;;;48.38;17.33;;;;;;;;;;5040257;28;20029;-85
2024/01/18 06:06:33;;;;;;;33.15;14.27;;;;;;;;;;5040362;28;20025;-84
2024/01/18 06:08:58;;;;;;;20.15;5.13;;;;;;;;;;5057874;28;20049;-85
2024/01/18 06:11:24;;;;;;;17.30;4.68;;;;;;;;;;5040215;28;20185;-85
2024/01/18 06:13:49;;;;;;;28.30;8.90;;;;;;;;;;5043562;28;20302;-85
2024/01/18 06:16:15;;;;;;;26.92;7.95;;;;;;;;;;5060087;28;20426;-84
2024/01/18 06:18:42;;;;;;;25.60;8.50;;;;;;;;;;5060022;28;20021;-84
2024/01/18 06:21:07;;;;;;;17.77;6.07;;;;;;;;;;5060079;28;20028;-85
2024/01/18 06:23:33;;;;;;;21.70;5.30;;;;;;;;;;5059785;28;20024;-85
2024/01/18 06:25:58;;;;;;;27.50;4.65;;;;;;;;;;5059856;28;20017;-85
2024/01/18 06:28:23;;;;;;;21.20;4.75;;;;;;;;;;5078044;28;20074;-85
2024/01/18 06:30:49;;;;;;;9.37;3.70;;;;;;;;;;5077307;28;20099;-85
2024/01/18 06:33:14;;;;;;;8.95;3.20;;;;;;;;;;5077295;28;20316;-85
2024/01/18 06:35:39;;;;;;;8.07;2.45;;;;;;;;;;5060006;28;20020;-85
2024/01/18 06:38:05;;;;;;;12.82;2.63;;;;;;;;;;5077366;28;20111;-85
2024/01/18 06:40:30;;;;;;;5.63;2.30;;;;;;;;;;5059172;28;20081;-85
2024/01/18 06:42:55;;;;;;;7.47;1.85;;;;;;;;;;5059592;28;20027;-85
2024/01/18 06:45:21;;;;;;;7.78;1.60;;;;;;;;;;5070527;28;20390;-85
2024/01/18 06:47:46;;;;;;;7.25;1.52;;;;;;;;;;5057842;28;20020;-84
2024/01/18 06:50:13;;;;;;;7.85;2.30;;;;;;;;;;5057053;28;20017;-85
2024/01/18 06:52:38;;;;;;;6.20;1.50;;;;;;;;;;5039641;28;20013;-84
2024/01/18 06:55:05;;;;;;;7.05;1.30;;;;;;;;;;5039525;28;20508;-85
2024/01/18 06:57:30;;;;;;;8.10;1.58;;;;;;;;;;5057036;28;20017;-85
2024/01/18 06:59:56;;;;;;;4.88;1.27;;;;;;;;;;5059102;28;20027;-85
2024/01/18 07:02:21;;;;;;;5.57;1.25;;;;;;;;;;5076899;28;20028;-85
2024/01/18 07:04:46;;;;;;;6.72;1.23;;;;;;;;;;5076870;28;20017;-85
2024/01/18 07:07:12;;;;;;;8.70;1.58;;;;;;;;;;5077268;28;20023;-84
2024/01/18 07:09:37;;;;;;;5.60;1.27;;;;;;;;;;5059245;28;20542;-85
2024/01/18 07:12:02;;;;;;;4.35;1.38;;;;;;;;;;5076709;28;20016;-85
2024/01/18 07:14:29;;;;;;;6.75;1.55;;;;;;;;;;5076833;28;20056;-85
2024/01/18 07:16:55;;;;;;;8.43;2.03;;;;;;;;;;5059084;28;20048;-85
2024/01/18 07:19:20;;;;;;;5.50;1.40;;;;;;;;;;5076744;28;20058;-85
2024/01/18 07:21:45;;;;;;;8.27;1.48;;;;;;;;;;5058938;28;20024;-85
2024/01/18 07:24:10;;;;;;;5.80;2.25;;;;;;;;;;5076672;28;20020;-85
2024/01/18 07:26:36;;;;;;;4.35;1.10;;;;;;;;;;5058698;28;20028;-85
2024/01/18 07:29:01;;;;;;;5.05;1.35;;;;;;;;;;5076652;28;20039;-85
2024/01/18 07:31:27;;;;;;;7.50;1.40;;;;;;;;;;5059082;28;20017;-85
2024/01/18 07:33:52;;;;;;;6.30;1.50;;;;;;;;;;5058607;28;20058;-85
2024/01/18 07:36:17;;;;;;;7.18;1.20;;;;;;;;;;5059099;28;20021;-85
2024/01/18 07:38:43;;;;;;;6.95;1.30;;;;;;;;;;5076878;28;20079;-85
2024/01/18 07:41:08;;;;;;;4.47;1.40;;;;;;;;;;5076701;28;20021;-85
2024/01/18 07:43:34;;;;;;;4.32;0.93;;;;;;;;;;5058908;28;20020;-85
2024/01/18 07:45:59;;;;;;;7.25;1.95;;;;;;;;;;5076496;28;20016;-85
2024/01/18 07:48:25;;;;;;;12.43;1.75;;;;;;;;;;5076430;28;20020;-85
2024/01/18 07:50:50;;;;;;;4.75;1.30;;;;;;;;;;5076357;28;20013;-85
2024/01/18 07:53:16;;;;;;;8.00;1.30;;;;;;;;;;5058770;28;20021;-85
2024/01/18 07:55:42;;;;;;;6.38;1.02;;;;;;;;;;5058747;28;20038;-84
2024/01/18 07:58:08;;;;;;;6.43;1.35;;;;;;;;;;5076676;28;20024;-85
2024/01/18 08:00:33;;;;;;;3.75;0.80;;;;;;;;;;5058370;28;20048;-85
2024/01/18 08:02:59;;;;;;;12.18;5.68;;;;;;;;;;5058594;28;20024;-86
2024/01/18 08:05:24;;;;;;;12.25;5.65;;;;;;;;;;5079816;28;20020;-85
2024/01/18 08:07:49;;;;;;;9.27;4.10;;;;;;;;;;5080277;28;20102;-85
2024/01/18 08:10:14;;;;;;;14.60;6.30;;;;;;;;;;5080112;28;20170;-85
2024/01/18 08:12:42;;;;;;;14.35;7.72;;;;;;;;;;5080134;28;20021;-85
2024/01/18 08:15:08;;;;;;;16.65;6.75;;;;;;;;;;5080430;28;20025;-85
2024/01/18 08:17:34;;;;;;;8.15;3.58;;;;;;;;;;5080098;28;20089;-85
2024/01/18 08:19:59;;;;;;;6.90;1.33;;;;;;;;;;5062272;28;20076;-85
2024/01/18 08:22:24;;;;;;;12.65;2.08;;;;;;;;;;5062187;28;20025;-85
2024/01/18 08:24:50;;;;;;;6.65;1.35;;;;;;;;;;5079859;28;20032;-86
2024/01/18 08:27:15;;;;;;;5.20;1.00;;;;;;;;;;5079825;28;20024;-85
2024/01/18 08:29:40;;;;;;;9.25;1.58;;;;;;;;;;5079846;28;20021;-85
2024/01/18 08:32:06;;;;;;;12.50;1.90;;;;;;;;;;5062098;28;20107;-86
2024/01/18 08:34:31;;;;;;;11.35;2.08;;;;;;;;;;5079656;28;20024;-84
2024/01/18 08:36:57;;;;;;;4.93;1.20;;;;;;;;;;5079692;28;20047;-86
2024/01/18 08:39:22;;;;;;;11.85;5.55;;;;;;;;;;5061996;28;20028;-86
2024/01/18 08:41:47;;;;;;;4.55;1.60;;;;;;;;;;5061820;28;20032;-86
2024/01/18 08:44:12;;;;;;;9.98;3.47;;;;;;;;;;5079465;28;20028;-86
2024/01/18 08:46:39;;;;;;;5.72;2.15;;;;;;;;;;5079434;28;20414;-86
2024/01/18 08:49:04;;;;;;;13.13;5.82;;;;;;;;;;5061755;28;20028;-85
2024/01/18 08:51:29;;;;;;;7.88;2.08;;;;;;;;;;5062017;28;20336;-86
2024/01/18 08:53:55;;;;;;;6.50;1.35;;;;;;;;;;5061842;28;20024;-84
2024/01/18 08:56:20;;;;;;;6.07;2.13;;;;;;;;;;5061394;28;20131;-86
2024/01/18 08:58:45;;;;;;;5.72;2.70;;;;;;;;;;5061632;28;20425;-86
2024/01/18 09:01:10;;;;;;;9.85;3.55;;;;;;;;;;5061332;28;20033;-86
2024/01/18 09:03:36;;;;;;;8.65;3.60;;;;;;;;;;5079274;28;20036;-86
2024/01/18 09:06:02;;;;;;;9.23;2.30;;;;;;;;;;5061835;28;20025;-86
2024/01/18 09:08:27;;;;;;;13.52;5.60;;;;;;;;;;5061466;28;20024;-86
2024/01/18 09:10:53;;;;;;;5.88;1.42;;;;;;;;;;5061262;28;20024;-86
2024/01/18 09:13:19;;;;;;;7.57;2.67;;;;;;;;;;5061679;28;20115;-86
2024/01/18 09:15:45;;;;;;;7.80;3.72;;;;;;;;;;5059940;28;20127;-86
2024/01/18 09:18:17;;;;;;;9.30;2.72;;;;;;;;;;5079256;28;20105;-86
2024/01/18 09:20:45;;;;;;;5.50;2.05;;;;;;;;;;5061136;28;20055;-86
2024/01/18 09:23:10;;;;;;;3.78;1.17;;;;;;;;;;5078795;28;20123;-85
2024/01/18 09:25:36;;;;;;;5.05;1.52;;;;;;;;;;5061224;28;20119;-85
2024/01/18 09:28:01;;;;;;;6.20;0.98;;;;;;;;;;5061098;28;20025;-86
2024/01/18 09:30:26;;;;;;;4.07;1.10;;;;;;;;;;5078648;28;20029;-86
2024/01/18 09:32:52;;;;;;;7.30;1.45;;;;;;;;;;5078679;28;20024;-86
2024/01/18 09:35:17;;;;;;;4.32;1.20;;;;;;;;;;5061247;28;20028;-85
2024/01/18 09:37:42;;;;;;;6.75;1.33;;;;;;;;;;5078596;28;20025;-85
2024/01/18 09:40:11;;;;;;;10.30;1.42;;;;;;;;;;5078581;28;20029;-86
2024/01/18 09:42:40;;;;;;;5.57;1.08;;;;;;;;;;5061172;28;20032;-87
2024/01/18 09:45:08;;;;;;;5.38;0.98;;;;;;;;;;5060960;28;20039;-90
2024/01/18 09:47:34;;;;;;;4.93;0.80;;;;;;;;;;5060850;28;20507;-87
2024/01/18 09:49:59;;;;;;;6.25;1.27;;;;;;;;;;5061024;28;20074;-89
2024/01/18 09:52:25;;;;;;;5.43;2.08;;;;;;;;;;5060917;28;20024;-88
2024/01/18 09:54:50;;;;;;;9.77;1.42;;;;;;;;;;5061022;28;20051;-86
2024/01/18 09:57:19;;;;;;;10.57;1.50;;;;;;;;;;5060934;28;20115;-87
2024/01/18 09:59:44;;;;;;;5.13;1.50;;;;;;;;;;5061217;28;20036;-87
2024/01/18 10:02:10;;;;;;;4.47;1.20;;;;;;;;;;5060745;28;20043;-87
2024/01/18 10:04:36;;;;;;;8.68;1.48;;;;;;;;;;5060691;28;20059;-87
2024/01/18 10:07:01;;;;;;;9.43;1.63;;;;;;;;;;5078205;28;20056;-88
2024/01/18 10:09:28;;;;;;;6.40;1.45;;;;;;;;;;5060881;28;20421;-88
2024/01/18 10:11:53;;;;;;;4.80;1.50;;;;;;;;;;5060648;28;20154;-87
2024/01/18 10:14:37;;;;;;;4.93;0.85;;;;;;;;;;5060362;28;20123;-89
2024/01/18 10:17:02;;;;;;;9.13;1.30;;;;;;;;;;5060314;28;20345;-89
2024/01/18 10:19:28;;;;;;;8.75;1.20;;;;;;;;;;5060269;28;20024;-89
2024/01/18 10:21:54;;;;;;;8.43;1.42;;;;;;;;;;5060477;28;20158;-89
2024/01/18 10:24:19;;;;;;;9.85;1.10;;;;;;;;;;5077822;28;20337;-89
2024/01/18 10:26:45;;;;;;;7.45;1.17;;;;;;;;;;5059754;28;20027;-89
2024/01/18 10:29:10;;;;;;;9.27;1.52;;;;;;;;;;5060111;28;20027;-89
2024/01/18 10:31:39;;;;;;;6.57;1.50;;;;;;;;;;5060025;28;20062;-89
2024/01/18 10:34:04;;;;;;;4.80;1.38;;;;;;;;;;5060010;28;20433;-90
2024/01/18 10:36:31;;;;;;;4.45;0.77;;;;;;;;;;5077861;28;20024;-87
2024/01/18 10:38:57;;;;;;;7.75;1.30;;;;;;;;;;5059822;28;20034;-87
2024/01/18 10:41:22;;;;;;;5.35;1.13;;;;;;;;;;5059966;28;20024;-86
2024/01/18 10:43:48;;;;;;;5.40;1.35;;;;;;;;;;5059782;28;20073;-90
2024/01/18 10:46:14;;;;;;;5.13;1.13;;;;;;;;;;5060018;28;20069;-90
2024/01/18 10:48:39;;;;;;;7.45;1.15;;;;;;;;;;5059701;28;20017;-86
2024/01/18 10:51:05;;;;;;;7.10;1.00;;;;;;;;;;5059629;28;20027;-87
2024/01/18 10:53:34;;;;;;;7.55;1.38;;;;;;;;;;5077555;28;20280;-87
2024/01/18 10:55:59;;;;;;;4.43;1.30;;;;;;;;;;5059918;28;20024;-87
2024/01/18 10:58:25;;;;;;;6.10;1.10;;;;;;;;;;5059459;28;20020;-87
2024/01/18 11:00:50;;;;;;;7.10;1.45;;;;;;;;;;5059256;28;20028;-86
2024/01/18 11:03:17;;;;;;;8.63;1.20;;;;;;;;;;5059400;28;20451;-87
2024/01/18 11:05:44;;;;;;;8.70;1.27;;;;;;;;;;5059350;28;20016;-88
2024/01/18 11:08:12;;;;;;;4.00;1.00;;;;;;;;;;5060001;28;20048;-87
2024/01/18 11:10:37;;;;;;;7.65;1.20;;;;;;;;;;5059192;28;20046;-87
2024/01/18 11:13:03;;;;;;;7.65;1.20;;;;;;;;;;5059323;28;20024;-87
2024/01/18 11:15:29;;;;;;;4.20;1.02;;;;;;;;;;5059521;28;20120;-86
2024/01/18 11:18:00;;;;;;;6.93;1.25;;;;;;;;;;5059147;28;20407;-85
2024/01/18 11:20:25;;;;;;;8.13;1.77;;;;;;;;;;5059291;28;20028;-85
2024/01/18 11:22:53;;;;;;;7.13;1.08;;;;;;;;;;5076804;28;20017;-88
2024/01/18 11:25:21;;;;;;;2.85;0.82;;;;;;;;;;5058910;28;20367;-82
2024/01/18 11:27:46;;;;;;;10.27;0.98;;;;;;;;;;5076712;28;20027;-85
2024/01/18 11:30:13;;;;;;;7.47;1.30;;;;;;;;;;5076838;28;20021;-82
2024/01/18 11:32:38;;;;;;;4.28;0.80;;;;;;;;;;5076547;28;20027;-84
2024/01/18 11:35:08;;;;;;;9.38;1.23;;;;;;;;;;5076587;28;20028;-86
2024/01/18 11:37:34;;;;;;;8.13;1.35;;;;;;;;;;5076443;28;20020;-86
2024/01/18 11:40:00;;;;;;;2.67;0.82;;;;;;;;;;5075847;28;20107;-86
2024/01/18 11:42:26;;;;;;;5.57;1.13;;;;;;;;;;5059047;28;20099;-84
2024/01/18 11:44:55;;;;;;;8.20;1.30;;;;;;;;;;5058968;28;20052;-84
2024/01/18 11:47:22;;;;;;;9.00;1.50;;;;;;;;;;5076425;28;20315;-85
2024/01/18 11:49:47;;;;;;;4.05;0.90;;;;;;;;;;5076441;28;20044;-85
2024/01/18 11:52:14;;;;;;;3.38;0.80;;;;;;;;;;5058918;28;20020;-84
2024/01/18 11:54:42;;;;;;;7.25;1.08;;;;;;;;;;5076360;28;20020;-88
2024/01/18 11:57:12;;;;;;;4.95;0.82;;;;;;;;;;5076322;28;20380;-86
2024/01/18 11:59:40;;;;;;;8.82;0.98;;;;;;;;;;5058950;28;20143;-87
2024/01/18 12:02:05;;;;;;;4.28;1.00;;;;;;;;;;5058402;28;20337;-86
2024/01/18 12:04:30;;;;;;;5.47;1.20;;;;;;;;;;5058255;28;20037;-87
2024/01/18 12:06:55;;;;;;;8.10;1.23;;;;;;;;;;5076286;28;20425;-86
2024/01/18 12:09:21;;;;;;;6.40;0.90;;;;;;;;;;5058774;28;20025;-86
2024/01/18 12:11:46;;;;;;;5.70;1.13;;;;;;;;;;5058740;28;20025;-85
2024/01/18 12:14:12;;;;;;;6.95;0.93;;;;;;;;;;5058554;28;20028;-84
2024/01/18 12:16:38;;;;;;;5.75;0.90;;;;;;;;;;5076171;28;20032;-84
2024/01/18 12:19:05;;;;;;;7.63;1.33;;;;;;;;;;5076189;28;20028;-84
2024/01/18 12:21:31;;;;;;;2.83;0.65;;;;;;;;;;5058245;28;20028;-85
2024/01/18 12:23:56;;;;;;;7.75;0.90;;;;;;;;;;5076027;28;20029;-82
2024/01/18 12:26:22;;;;;;;4.80;1.10;;;;;;;;;;5058434;28;20028;-84
2024/01/18 12:28:47;;;;;;;12.73;1.30;;;;;;;;;;5076090;28;20089;-84
2024/01/18 12:31:12;;;;;;;5.25;0.98;;;;;;;;;;5075941;28;20024;-83
2024/01/18 12:33:38;;;;;;;10.32;1.55;;;;;;;;;;5058598;28;20067;-84
2024/01/18 12:36:03;;;;;;;8.65;1.30;;;;;;;;;;5076079;28;20029;-84
2024/01/18 12:38:29;;;;;;;10.55;1.05;;;;;;;;;;5076008;28;20024;-84
2024/01/18 12:40:54;;;;;;;14.77;1.85;;;;;;;;;;5076188;28;20111;-85
2024/01/18 12:43:20;;;;;;;12.02;1.67;;;;;;;;;;5076185;28;20059;-83
2024/01/18 12:45:54;;;;;;;5.45;1.27;;;;;;;;;;5058140;28;20055;-83
2024/01/18 12:48:19;;;;;;;8.48;1.30;;;;;;;;;;5058595;28;20123;-85
2024/01/18 12:50:45;;;;;;;5.93;1.20;;;;;;;;;;5060369;28;20115;-85
2024/01/18 12:53:11;;;;;;;6.50;1.23;;;;;;;;;;5061833;28;20020;-85
2024/01/18 12:55:36;;;;;;;6.55;1.23;;;;;;;;;;5061648;28;20025;-85
2024/01/18 12:58:02;;;;;;;11.23;1.35;;;;;;;;;;5061426;28;20063;-84
2024/01/18 13:00:29;;;;;;;4.72;0.95;;;;;;;;;;5061726;28;20043;-85
2024/01/18 13:02:55;;;;;;;4.38;1.00;;;;;;;;;;5061977;28;20028;-86
2024/01/18 13:05:20;;;;;;;9.13;1.20;;;;;;;;;;5061494;28;20028;-88
2024/01/18 13:07:46;;;;;;;10.20;1.13;;;;;;;;;;5061820;28;20020;-83
2024/01/18 13:10:12;;;;;;;7.78;1.20;;;;;;;;;;5078919;28;20023;-85
2024/01/18 13:12:38;;;;;;;6.57;0.90;;;;;;;;;;5061427;28;20425;-86
2024/01/18 13:15:04;;;;;;;9.63;1.30;;;;;;;;;;5061409;28;20025;-83
2024/01/18 13:17:29;;;;;;;4.35;1.10;;;;;;;;;;5078726;28;20058;-85
2024/01/18 13:19:56;;;;;;;5.85;1.25;;;;;;;;;;5059327;28;20067;-85
2024/01/18 13:22:21;;;;;;;4.85;0.90;;;;;;;;;;5058692;28;20124;-85
2024/01/18 13:24:46;;;;;;;6.47;1.05;;;;;;;;;;5058645;28;20111;-86
2024/01/18 13:27:12;;;;;;;7.53;1.57;;;;;;;;;;5059066;28;20044;-86
2024/01/18 13:29:37;;;;;;;7.32;1.05;;;;;;;;;;5041384;28;20258;-86
2024/01/18 13:32:03;;;;;;;5.78;1.63;;;;;;;;;;5041263;28;20021;-85
2024/01/18 13:34:30;;;;;;;6.30;1.00;;;;;;;;;;5040684;28;20056;-84
2024/01/18 13:36:56;;;;;;;8.93;1.10;;;;;;;;;;5069568;28;20332;-85
2024/01/18 13:39:22;;;;;;;6.03;1.20;;;;;;;;;;5098795;28;20027;-84
2024/01/18 13:41:47;;;;;;;3.90;0.80;;;;;;;;;;5046028;28;20062;-85
2024/01/18 13:44:15;;;;;;;15.60;3.75;;;;;;;;;;5042829;28;20032;-87
2024/01/18 13:46:41;;;;;;;7.70;1.27;;;;;;;;;;5040877;28;20029;-87
2024/01/18 13:49:08;;;;;;;11.65;2.63;;;;;;;;;;5041453;28;20476;-87
2024/01/18 13:51:34;;;;;;;8.82;2.25;;;;;;;;;;5041001;28;20036;-88
2024/01/18 13:54:00;;;;;;;12.70;2.90;;;;;;;;;;5040898;28;20029;-87
2024/01/18 13:56:25;;;;;;;18.45;8.23;;;;;;;;;;5055016;28;20033;-87
2024/01/18 13:58:51;;;;;;;7.10;1.00;;;;;;;;;;5061400;28;20029;-86
2024/01/18 14:01:16;;;;;;;10.20;1.02;;;;;;;;;;5059726;28;20043;-87
2024/01/18 14:03:44;;;;;;;6.97;0.85;;;;;;;;;;5060743;28;20036;-88
2024/01/18 14:06:12;;;;;;;7.25;1.45;;;;;;;;;;5060657;28;20032;-87
2024/01/18 14:08:40;;;;;;;4.82;1.15;;;;;;;;;;5060536;28;20024;-86
2024/01/18 14:11:05;;;;;;;5.68;1.10;;;;;;;;;;5060415;28;20094;-87
2024/01/18 14:13:31;;;;;;;6.40;1.48;;;;;;;;;;5050462;28;20037;-87
2024/01/18 14:15:56;;;;;;;6.40;1.30;;;;;;;;;;5058330;28;20091;-86
2024/01/18 14:18:22;;;;;;;7.90;1.30;;;;;;;;;;5057994;28;20029;-85
2024/01/18 14:20:49;;;;;;;9.82;1.50;;;;;;;;;;5061748;28;20379;-87
2024/01/18 14:23:14;;;;;;;6.78;1.10;;;;;;;;;;5058127;28;20029;-86
2024/01/18 14:25:39;;;;;;;7.40;1.42;;;;;;;;;;5040579;28;20071;-83